Time;durP1;ratioP1;P1;durP2;ratioP2;P2;SDS_P1;SDS_P2;PMS_P1;PMS_P2;Temp;Humidity;BMP_temperature;BMP_pressure;BME280_temperature;BME280_humidity;BME280_pressure;Samples;Min_cycle;Max_cycle;Signal;HPM_P1;HPM_P2
2023/01/01 00:00:39;;;;;;;68.60;38.08;;;;;;;12.38;100.00;100705.31;5049420;28;20051;-81
2023/01/01 00:03:05;;;;;;;83.88;46.50;;;;;;;12.34;100.00;100702.94;5050003;28;20029;-79
2023/01/01 00:05:30;;;;;;;92.28;53.38;;;;;;;12.27;100.00;100691.22;5049500;28;20053;-79
2023/01/01 00:07:55;;;;;;;81.53;48.00;;;;;;;12.23;100.00;100700.53;5049993;28;20029;-84
2023/01/01 00:10:27;;;;;;;103.85;71.07;;;;;;;12.22;100.00;100704.16;5061194;28;20036;-83
2023/01/01 00:12:52;;;;;;;186.40;127.15;;;;;;;12.33;100.00;100708.41;5059880;28;20044;-84
2023/01/01 00:15:18;;;;;;;112.13;69.65;;;;;;;12.33;100.00;100700.41;5050744;28;20121;-83
2023/01/01 00:17:43;;;;;;;63.10;34.25;;;;;;;12.27;100.00;100712.56;5050560;28;20106;-83
2023/01/01 00:20:09;;;;;;;115.88;68.70;;;;;;;12.24;100.00;100701.34;5052230;28;20047;-86
2023/01/01 00:22:34;;;;;;;114.68;60.92;;;;;;;12.16;100.00;100710.13;5069318;28;20032;-83
2023/01/01 00:24:59;;;;;;;42.97;18.60;;;;;;;12.10;100.00;100698.22;5067348;28;20044;-82
2023/01/01 00:27:25;;;;;;;72.20;32.63;;;;;;;12.08;100.00;100683.38;5049368;28;20071;-79
2023/01/01 00:29:50;;;;;;;83.63;38.85;;;;;;;12.09;100.00;100693.91;5049210;28;20495;-81
2023/01/01 00:32:15;;;;;;;97.78;60.45;;;;;;;12.10;100.00;100692.88;5065189;28;20051;-83
2023/01/01 00:34:41;;;;;;;68.68;38.00;;;;;;;12.12;100.00;100690.94;5058515;28;20102;-81
2023/01/01 00:37:06;;;;;;;46.88;23.50;;;;;;;12.21;100.00;100699.84;5047054;28;20110;-82
2023/01/01 00:39:32;;;;;;;156.55;77.72;;;;;;;12.23;100.00;100699.69;5049799;28;20040;-80
2023/01/01 00:41:57;;;;;;;53.88;26.95;;;;;;;12.20;100.00;100700.00;5058897;28;20119;-82
2023/01/01 00:44:22;;;;;;;51.42;18.77;;;;;;;12.16;100.00;100699.44;5067403;28;20444;-83
2023/01/01 00:46:48;;;;;;;41.42;21.60;;;;;;;12.24;100.00;100662.19;5060957;28;20044;-84
2023/01/01 00:49:13;;;;;;;658.45;440.42;;;;;;;12.31;100.00;100676.56;5047951;28;20063;-84
2023/01/01 00:51:38;;;;;;;44.45;21.52;;;;;;;12.29;100.00;100675.06;5053661;28;20045;-83
2023/01/01 00:54:04;;;;;;;38.95;15.93;;;;;;;12.32;100.00;100674.75;5068619;28;20473;-83
2023/01/01 00:56:29;;;;;;;35.60;18.25;;;;;;;12.28;100.00;100700.06;5064482;28;20474;-80
2023/01/01 00:58:54;;;;;;;28.48;11.80;;;;;;;12.27;100.00;100703.72;5060090;28;20041;-81
2023/01/01 01:01:20;;;;;;;108.03;56.08;;;;;;;12.24;100.00;100726.22;5052293;28;20040;-81
2023/01/01 01:03:45;;;;;;;32.80;13.02;;;;;;;12.24;100.00;100728.88;5060184;28;20051;-77
2023/01/01 01:06:11;;;;;;;33.08;11.68;;;;;;;12.25;100.00;100743.03;5068736;28;20097;-76
2023/01/01 01:08:42;;;;;;;45.25;15.35;;;;;;;12.28;100.00;100726.72;5068534;28;20032;-77
2023/01/01 01:11:09;;;;;;;148.27;85.20;;;;;;;12.22;100.00;100712.16;5053209;28;20155;-85
2023/01/01 01:13:35;;;;;;;31.02;12.18;;;;;;;12.22;100.00;100720.16;5047449;28;20052;-85
2023/01/01 01:16:06;;;;;;;48.42;29.48;;;;;;;12.19;100.00;100708.97;5052062;28;20067;-85
2023/01/01 01:18:31;;;;;;;;;;;;;;;12.16;100.00;100721.63;5052269;28;20443;-84
2023/01/01 01:20:57;;;;;;;134.20;74.60;;;;;;;12.24;100.00;100715.53;5052379;28;19921;-83
2023/01/01 01:23:22;;;;;;;75.90;43.85;;;;;;;12.21;100.00;100721.19;5052429;28;20029;-84
2023/01/01 01:25:47;;;;;;;37.70;16.65;;;;;;;12.24;100.00;100709.34;5051828;28;20041;-86
2023/01/01 01:28:13;;;;;;;50.50;22.80;;;;;;;12.22;100.00;100709.50;5050956;28;20124;-83
2023/01/01 01:30:40;;;;;;;35.85;16.20;;;;;;;12.20;100.00;100721.34;5051803;28;20072;-85
2023/01/01 01:33:06;;;;;;;14.80;3.85;;;;;;;12.21;100.00;100721.19;5052326;28;20033;-83
2023/01/01 01:35:34;;;;;;;31.45;13.10;;;;;;;12.20;100.00;100716.00;5051817;28;20025;-83
2023/01/01 01:38:00;;;;;;;27.60;9.77;;;;;;;12.16;100.00;100716.28;5052342;28;20508;-84
2023/01/01 01:40:25;;;;;;;54.67;24.63;;;;;;;12.26;100.00;100723.38;5051308;28;20120;-84
2023/01/01 01:42:51;;;;;;;23.20;7.72;;;;;;;12.28;100.00;100746.22;5051784;28;20029;-83
2023/01/01 01:45:17;;;;;;;35.13;17.25;;;;;;;12.31;100.00;100729.09;5052035;28;20444;-85
2023/01/01 01:47:57;;;;;;;90.47;40.05;;;;;;;12.31;100.00;100729.91;5051607;28;20036;-84
2023/01/01 01:50:29;;;;;;;36.45;12.95;;;;;;;12.30;100.00;100736.28;5052252;28;20029;-84
2023/01/01 01:52:57;;;;;;;;;;;;;;;12.34;100.00;100750.13;5052631;28;20487;-84
2023/01/01 01:55:23;;;;;;;18.80;9.95;;;;;;;12.38;100.00;100732.81;5052209;28;19968;-82
2023/01/01 01:57:48;;;;;;;36.38;18.30;;;;;;;12.43;100.00;100765.22;5051649;28;20081;-83
2023/01/01 02:00:14;;;;;;;18.27;6.63;;;;;;;12.44;100.00;100744.72;5051787;28;20095;-83
2023/01/01 02:02:49;;;;;;;30.75;9.07;;;;;;;12.47;100.00;100750.56;5051361;28;20041;-84
2023/01/01 02:05:17;;;;;;;65.75;32.08;;;;;;;12.47;100.00;100758.59;5052464;28;20543;-83
2023/01/01 02:07:43;;;;;;;26.52;12.90;;;;;;;12.45;100.00;100759.72;5051760;28;20053;-83
2023/01/01 02:10:09;;;;;;;23.23;5.22;;;;;;;12.46;100.00;100772.09;5051536;28;20025;-81
2023/01/01 02:12:34;;;;;;;24.83;11.40;;;;;;;12.43;100.00;100762.53;5050268;28;20043;-82
2023/01/01 02:15:00;;;;;;;25.77;10.73;;;;;;;12.42;100.00;100758.22;5051755;28;20068;-83
2023/01/01 02:18:02;;;;;;;13.20;4.57;;;;;;;12.37;100.00;100760.50;5052066;28;20120;-84
2023/01/01 02:20:44;;;;;;;12.13;3.63;;;;;;;12.40;100.00;100767.34;5045157;28;20037;-83
2023/01/01 02:23:41;;;;;;;17.95;4.43;;;;;;;12.41;100.00;100785.88;5052053;28;20025;-83
2023/01/01 02:26:37;;;;;;;80.82;22.92;;;;;;;12.40;100.00;100794.88;5051842;28;20163;-83
2023/01/01 02:29:13;;;;;;;23.42;12.95;;;;;;;12.41;100.00;100782.38;5051500;28;20361;-83
2023/01/01 02:31:48;;;;;;;16.95;5.10;;;;;;;12.35;100.00;100782.00;5051427;28;20037;-83
2023/01/01 02:34:17;;;;;;;24.20;7.88;;;;;;;12.29;100.00;100771.09;5051833;28;20036;-82
2023/01/01 02:36:51;;;;;;;12.65;4.57;;;;;;;12.25;100.00;100777.72;5051137;28;20135;-83
2023/01/01 02:39:21;;;;;;;25.08;5.25;;;;;;;12.25;100.00;100783.06;5052024;28;20074;-83
2023/01/01 02:41:51;;;;;;;28.58;10.48;;;;;;;12.21;100.00;100774.53;5051221;28;20025;-83
2023/01/01 02:44:20;;;;;;;68.05;37.85;;;;;;;12.20;100.00;100766.69;5051686;28;20489;-83
2023/01/01 02:46:46;;;;;;;24.13;7.13;;;;;;;12.19;100.00;100775.66;5051264;28;20422;-82
2023/01/01 02:49:11;;;;;;;31.30;15.10;;;;;;;12.11;100.00;100797.75;5051847;28;20033;-83
2023/01/01 02:51:55;;;;;;;34.72;16.40;;;;;;;12.04;100.00;100781.50;5052025;28;20467;-83
2023/01/01 02:54:27;;;;;;;27.00;11.05;;;;;;;12.05;100.00;100785.84;5055391;28;20029;-83
2023/01/01 02:57:15;;;;;;;18.67;8.02;;;;;;;12.04;100.00;100789.50;5054690;28;20087;-83
2023/01/01 03:00:18;;;;;;;108.70;58.25;;;;;;;12.00;100.00;100790.78;5054600;28;20025;-82
2023/01/01 03:03:20;;;;;;;63.35;25.83;;;;;;;12.03;100.00;100793.16;5054705;28;20068;-83
2023/01/01 03:08:57;;;;;;;19.52;8.80;;;;;;;11.83;100.00;100819.06;5055265;28;20055;-85
2023/01/01 03:11:28;;;;;;;20.42;8.05;;;;;;;11.68;100.00;100821.38;5055256;28;20029;-85
2023/01/01 03:14:16;;;;;;;18.23;5.20;;;;;;;11.72;100.00;100830.75;5054651;28;20033;-83
2023/01/01 03:16:55;;;;;;;21.27;9.38;;;;;;;11.76;100.00;100834.81;5055102;28;20119;-80
2023/01/01 03:19:25;;;;;;;37.05;15.43;;;;;;;11.78;100.00;100838.16;5055593;28;20137;-84
2023/01/01 03:21:53;;;;;;;15.77;4.88;;;;;;;11.82;100.00;100841.38;5054790;28;20155;-83
2023/01/01 03:24:25;;;;;;;11.93;3.70;;;;;;;11.79;100.00;100855.84;5054752;28;20040;-84
2023/01/01 03:26:55;;;;;;;13.77;3.97;;;;;;;11.79;100.00;100839.00;5054711;28;20033;-82
2023/01/01 03:29:23;;;;;;;12.82;3.30;;;;;;;11.80;100.00;100859.34;5053893;28;20033;-82
2023/01/01 03:31:53;;;;;;;12.05;3.38;;;;;;;11.78;100.00;100840.00;5054289;28;20037;-82
2023/01/01 03:34:25;;;;;;;10.02;3.95;;;;;;;11.79;100.00;100847.00;5054753;28;20033;-81
2023/01/01 03:36:56;;;;;;;10.15;3.40;;;;;;;11.78;100.00;100870.16;5054207;28;20049;-82
2023/01/01 03:39:31;;;;;;;15.07;3.58;;;;;;;11.79;100.00;100874.50;5054317;28;20037;-82
2023/01/01 03:42:15;;;;;;;12.45;4.15;;;;;;;11.74;100.00;100882.09;5053922;28;20397;-83
2023/01/01 03:44:46;;;;;;;16.90;4.10;;;;;;;11.70;100.00;100875.34;5054513;28;20025;-82
2023/01/01 03:47:12;;;;;;;14.93;2.97;;;;;;;11.58;100.00;100890.69;5053437;28;20382;-83
2023/01/01 03:49:38;;;;;;;20.40;6.22;;;;;;;11.53;100.00;100886.78;5052941;28;20590;-81
2023/01/01 03:52:14;;;;;;;29.48;12.68;;;;;;;11.52;100.00;100887.78;5054301;28;20119;-83
2023/01/01 03:55:05;;;;;;;21.80;8.32;;;;;;;11.43;100.00;100903.63;5052982;28;20040;-82
2023/01/01 03:57:42;;;;;;;10.20;2.50;;;;;;;11.35;100.00;100908.00;5054629;28;20032;-82
2023/01/01 04:00:15;;;;;;;23.58;4.10;;;;;;;11.27;100.00;100903.34;5053889;28;20029;-81
2023/01/01 04:03:07;;;;;;;23.15;4.53;;;;;;;11.17;100.00;100894.56;5054217;28;20098;-82
2023/01/01 04:05:39;;;;;;;52.72;18.33;;;;;;;11.13;100.00;100893.16;5054010;28;20108;-81
2023/01/01 04:08:06;;;;;;;14.77;3.00;;;;;;;11.10;100.00;100894.28;5053995;28;20033;-81
2023/01/01 04:10:34;;;;;;;12.73;3.17;;;;;;;11.04;100.00;100916.97;5053822;28;20392;-82
2023/01/01 04:13:02;;;;;;;16.15;3.05;;;;;;;11.01;100.00;100919.09;5053481;28;20033;-83
2023/01/01 04:15:27;;;;;;;20.90;4.38;;;;;;;10.96;100.00;100922.16;5054122;28;20036;-82
2023/01/01 04:17:53;;;;;;;13.48;3.45;;;;;;;10.94;100.00;100932.09;5053462;28;20047;-82
2023/01/01 04:20:20;;;;;;;15.68;2.63;;;;;;;10.94;100.00;100940.09;5053821;28;20457;-83
2023/01/01 04:22:46;;;;;;;13.77;3.33;;;;;;;10.94;100.00;100937.44;5053633;28;20029;-81
2023/01/01 04:25:12;;;;;;;27.33;13.05;;;;;;;10.90;100.00;100934.22;5053355;28;20040;-82
2023/01/01 04:27:38;;;;;;;18.85;3.38;;;;;;;10.84;100.00;100942.75;5053335;28;20036;-83
2023/01/01 04:30:06;;;;;;;18.75;3.03;;;;;;;10.82;100.00;100959.84;5053087;28;20374;-82
2023/01/01 04:32:32;;;;;;;16.35;3.75;;;;;;;10.85;100.00;100943.59;5053473;28;20028;-83
2023/01/01 04:34:57;;;;;;;18.13;4.28;;;;;;;10.82;100.00;100976.63;5053278;28;20087;-81
2023/01/01 04:37:23;;;;;;;22.92;3.97;;;;;;;10.76;100.00;100962.09;5053233;28;20053;-82
2023/01/01 04:39:48;;;;;;;27.52;4.35;;;;;;;10.75;100.00;100965.72;5053223;28;20029;-82
2023/01/01 04:42:14;;;;;;;22.95;3.58;;;;;;;10.75;100.00;100972.88;5053042;28;20039;-81
2023/01/01 04:44:39;;;;;;;14.00;3.05;;;;;;;10.76;100.00;100978.06;5053276;28;20106;-82
2023/01/01 04:47:05;;;;;;;20.95;4.05;;;;;;;10.76;100.00;100980.72;5052988;28;20036;-82
2023/01/01 04:49:30;;;;;;;25.15;4.95;;;;;;;10.77;100.00;100981.53;5053213;28;20025;-81
2023/01/01 04:51:55;;;;;;;21.45;3.80;;;;;;;10.76;100.00;100985.16;5052961;28;20053;-80
2023/01/01 04:54:21;;;;;;;18.60;3.72;;;;;;;10.73;100.00;100975.66;5053213;28;20040;-81
2023/01/01 04:56:46;;;;;;;20.35;3.70;;;;;;;10.70;100.00;100980.41;5053014;28;20037;-81
2023/01/01 04:59:11;;;;;;;20.85;3.47;;;;;;;10.67;100.00;100965.53;5052546;28;20061;-80
2023/01/01 05:01:37;;;;;;;18.70;4.30;;;;;;;10.63;100.00;100990.75;5053089;28;20037;-81
2023/01/01 05:04:02;;;;;;;20.13;4.50;;;;;;;10.62;100.00;100991.72;5052492;28;20112;-81
2023/01/01 05:06:28;;;;;;;19.08;3.80;;;;;;;10.58;100.00;100993.84;5052561;28;20037;-81
2023/01/01 05:08:55;;;;;;;19.23;3.50;;;;;;;10.61;100.00;101002.50;5052205;28;20135;-81
2023/01/01 05:11:23;;;;;;;19.63;4.07;;;;;;;10.63;100.00;100989.91;5050701;28;20436;-82
2023/01/01 05:13:51;;;;;;;32.38;4.80;;;;;;;10.55;100.00;100999.44;5052536;28;20432;-81
2023/01/01 05:16:20;;;;;;;19.92;4.82;;;;;;;10.53;100.00;101017.31;5052311;28;20107;-80
2023/01/01 05:18:45;;;;;;;21.88;5.22;;;;;;;10.57;100.00;101025.91;5052877;28;20048;-82
2023/01/01 05:21:17;;;;;;;19.73;3.95;;;;;;;10.58;100.00;101009.78;5052185;28;20061;-81
2023/01/01 05:23:43;;;;;;;20.02;4.05;;;;;;;10.59;100.00;101010.63;5052717;28;20029;-81
2023/01/01 05:26:16;;;;;;;20.30;4.32;;;;;;;10.54;100.00;101010.19;5052317;28;20032;-81
2023/01/01 05:28:42;;;;;;;17.77;4.35;;;;;;;10.51;100.00;101018.41;5052740;28;20098;-82
2023/01/01 05:31:12;;;;;;;25.10;4.07;;;;;;;10.51;100.00;101045.88;5052026;28;20474;-81
2023/01/01 05:33:38;;;;;;;28.08;5.78;;;;;;;10.49;100.00;101023.06;5052551;28;20064;-83
2023/01/01 05:36:05;;;;;;;22.98;5.05;;;;;;;10.46;100.00;101025.97;5051843;28;20441;-81
2023/01/01 05:38:30;;;;;;;17.40;4.18;;;;;;;10.48;100.00;101029.34;5052437;28;20040;-81
2023/01/01 05:40:56;;;;;;;23.77;4.22;;;;;;;10.54;100.00;101018.19;5052414;28;20041;-82
2023/01/01 05:43:22;;;;;;;22.15;4.18;;;;;;;10.55;100.00;101055.28;5052298;28;20355;-82
2023/01/01 05:45:47;;;;;;;14.45;3.10;;;;;;;10.56;100.00;101054.28;5052822;28;20029;-81
2023/01/01 05:48:12;;;;;;;21.70;4.38;;;;;;;10.52;100.00;101055.53;5052383;28;20060;-82
2023/01/01 05:50:38;;;;;;;25.08;4.60;;;;;;;10.52;100.00;101073.31;5052681;28;20040;-82
2023/01/01 05:53:03;;;;;;;22.17;3.67;;;;;;;10.48;100.00;101058.59;5052099;28;20130;-81
2023/01/01 05:55:30;;;;;;;15.65;3.38;;;;;;;10.48;100.00;101066.56;5052750;28;20109;-81
2023/01/01 05:57:56;;;;;;;27.48;4.50;;;;;;;10.44;100.00;101074.00;5052331;28;20029;-81
2023/01/01 06:00:21;;;;;;;18.25;3.25;;;;;;;10.38;100.00;101077.19;5050658;28;20122;-83
2023/01/01 06:02:48;;;;;;;23.48;3.20;;;;;;;10.41;100.00;101072.44;5052453;28;20123;-82
2023/01/01 06:05:14;;;;;;;18.52;3.00;;;;;;;10.39;100.00;101084.19;5051969;28;20036;-82
2023/01/01 06:07:40;;;;;;;21.83;3.50;;;;;;;10.34;100.00;101087.22;5052319;28;20531;-81
2023/01/01 06:10:05;;;;;;;13.95;2.78;;;;;;;10.32;100.00;101086.50;5051656;28;20037;-80
2023/01/01 06:12:31;;;;;;;25.60;3.78;;;;;;;10.29;100.00;101086.75;5052564;28;20044;-81
2023/01/01 06:14:56;;;;;;;31.40;3.50;;;;;;;10.31;100.00;101087.47;5052233;28;20041;-82
2023/01/01 06:17:21;;;;;;;17.88;4.75;;;;;;;10.27;100.00;101103.81;5051873;28;20101;-82
2023/01/01 06:19:47;;;;;;;23.33;3.63;;;;;;;10.29;100.00;101097.41;5052255;28;20186;-82
2023/01/01 06:22:12;;;;;;;16.75;3.35;;;;;;;10.28;100.00;101097.53;5051872;28;20056;-83
2023/01/01 06:24:38;;;;;;;27.13;3.88;;;;;;;10.26;100.00;101092.34;5052128;28;20033;-81
2023/01/01 06:27:03;;;;;;;27.52;4.25;;;;;;;10.26;100.00;101080.88;5053876;28;20411;-80
2023/01/01 06:29:28;;;;;;;31.88;4.75;;;;;;;10.26;100.00;101095.00;5055565;28;20029;-81
2023/01/01 06:31:54;;;;;;;31.85;3.60;;;;;;;10.26;100.00;101105.66;5055974;28;20043;-81
2023/01/01 06:34:19;;;;;;;21.40;3.42;;;;;;;10.20;100.00;101114.97;5055826;28;20031;-81
2023/01/01 06:36:44;;;;;;;21.15;3.97;;;;;;;10.23;100.00;101120.03;5055801;28;20202;-80
2023/01/01 06:39:10;;;;;;;19.25;3.63;;;;;;;10.23;100.00;101125.34;5055319;28;20484;-80
2023/01/01 06:41:35;;;;;;;21.65;4.57;;;;;;;10.21;100.00;101113.16;5055925;28;20480;-82
2023/01/01 06:44:01;;;;;;;22.40;3.60;;;;;;;10.17;100.00;101136.50;5056160;28;20036;-80
2023/01/01 06:46:32;;;;;;;20.38;3.75;;;;;;;10.12;100.00;101145.84;5055420;28;20056;-82
2023/01/01 06:49:01;;;;;;;17.92;3.17;;;;;;;10.11;100.00;101147.66;5055730;28;20029;-80
2023/01/01 06:51:29;;;;;;;27.90;3.47;;;;;;;10.11;100.00;101165.44;5055507;28;20115;-81
2023/01/01 06:54:00;;;;;;;18.33;3.28;;;;;;;10.09;100.00;101160.25;5055827;28;20033;-79
2023/01/01 06:56:26;;;;;;;20.70;2.95;;;;;;;10.07;100.00;101171.00;5055348;28;20025;-81
2023/01/01 06:58:52;;;;;;;25.42;3.72;;;;;;;10.09;100.00;101167.38;5056271;28;20037;-81
2023/01/01 07:01:23;;;;;;;22.48;3.42;;;;;;;10.09;100.00;101183.31;5055374;28;20041;-83
2023/01/01 07:03:54;;;;;;;23.27;2.90;;;;;;;10.04;100.00;101192.50;5055621;28;20044;-81
2023/01/01 07:06:19;;;;;;;17.63;3.40;;;;;;;10.08;100.00;101190.47;5054912;28;20025;-80
2023/01/01 07:08:45;;;;;;;25.65;4.35;;;;;;;10.07;100.00;101178.13;5055252;28;20469;-82
2023/01/01 07:11:10;;;;;;;22.02;3.83;;;;;;;10.02;100.00;101188.31;5055258;28;20122;-82
2023/01/01 07:13:35;;;;;;;16.92;2.80;;;;;;;9.95;100.00;101190.63;5054991;28;20029;-82
2023/01/01 07:16:01;;;;;;;16.80;2.72;;;;;;;9.89;100.00;101207.91;5055425;28;20037;-83
2023/01/01 07:18:27;;;;;;;19.42;2.88;;;;;;;9.89;100.00;101191.13;5054822;28;20033;-82
2023/01/01 07:20:55;;;;;;;15.85;2.95;;;;;;;9.86;100.00;101192.22;5055633;28;20044;-83
2023/01/01 07:23:21;;;;;;;17.50;2.95;;;;;;;9.84;100.00;101203.97;5054585;28;20037;-82
2023/01/01 07:25:48;;;;;;;20.08;4.03;;;;;;;9.81;100.00;101212.19;5055146;28;20327;-81
2023/01/01 07:28:14;;;;;;;16.30;2.22;;;;;;;9.76;100.00;101228.47;5055078;28;20083;-82
2023/01/01 07:30:39;;;;;;;21.02;3.25;;;;;;;9.74;100.00;101229.59;5054496;28;20029;-83
2023/01/01 07:33:05;;;;;;;24.48;3.83;;;;;;;9.73;100.00;101242.03;5055073;28;20037;-80
2023/01/01 07:35:30;;;;;;;20.20;4.35;;;;;;;9.76;100.00;101247.09;5054518;28;20500;-81
2023/01/01 07:37:55;;;;;;;21.95;3.13;;;;;;;9.78;100.00;101247.81;5054358;28;20227;-83
2023/01/01 07:40:21;;;;;;;17.35;2.90;;;;;;;9.73;100.00;101260.63;5054271;28;20029;-82
2023/01/01 07:42:46;;;;;;;16.10;2.55;;;;;;;9.71;100.00;101255.44;5055282;28;20036;-81
2023/01/01 07:45:12;;;;;;;18.75;3.85;;;;;;;9.71;100.00;101268.72;5053737;28;20048;-81
2023/01/01 07:47:37;;;;;;;42.83;12.20;;;;;;;9.66;100.00;101268.25;5054108;28;20036;-82
2023/01/01 07:50:03;;;;;;;32.67;9.98;;;;;;;9.62;100.00;101276.59;5054748;28;20033;-82
2023/01/01 07:52:28;;;;;;;23.20;2.92;;;;;;;9.59;100.00;101288.31;5054270;28;20538;-81
2023/01/01 07:54:53;;;;;;;38.15;13.45;;;;;;;9.59;100.00;101288.31;5055180;28;20091;-82
2023/01/01 07:57:19;;;;;;;24.00;2.75;;;;;;;9.61;100.00;101310.25;5054119;28;20033;-81
2023/01/01 07:59:44;;;;;;;20.98;2.95;;;;;;;9.63;100.00;101300.38;5053596;28;20044;-81
2023/01/01 08:02:11;;;;;;;18.00;2.67;;;;;;;9.67;100.00;101299.19;5054490;28;20029;-82
2023/01/01 08:04:37;;;;;;;14.15;2.33;;;;;;;9.70;100.00;101311.34;5054134;28;20036;-81
2023/01/01 08:07:03;;;;;;;15.20;2.17;;;;;;;9.76;100.00;101308.19;5054384;28;20029;-82
2023/01/01 08:09:28;;;;;;;15.32;3.25;;;;;;;9.73;100.00;101313.75;5053936;28;20033;-83
2023/01/01 08:11:57;;;;;;;19.70;3.45;;;;;;;9.71;100.00;101305.91;5054157;28;20082;-81
2023/01/01 08:14:22;;;;;;;16.80;3.60;;;;;;;9.75;100.00;101301.22;5054114;28;20127;-82
2023/01/01 08:16:48;;;;;;;24.80;3.67;;;;;;;9.79;100.00;101308.00;5054344;28;20498;-83
2023/01/01 08:19:13;;;;;;;14.50;2.63;;;;;;;9.78;100.00;101295.66;5054648;28;20033;-82
2023/01/01 08:21:38;;;;;;;12.13;2.50;;;;;;;9.76;100.00;101300.22;5061132;28;20056;-81
2023/01/01 08:24:04;;;;;;;14.23;2.42;;;;;;;9.75;100.00;101303.00;5064743;28;20036;-81
2023/01/01 08:26:32;;;;;;;21.95;3.40;;;;;;;9.82;100.00;101301.56;5053977;28;20040;-82
2023/01/01 08:28:58;;;;;;;13.25;2.30;;;;;;;9.79;100.00;101301.81;5054190;28;20037;-81
2023/01/01 08:31:24;;;;;;;23.85;3.17;;;;;;;9.79;100.00;101309.78;5053371;28;20041;-82
2023/01/01 08:33:50;;;;;;;17.73;2.80;;;;;;;9.76;100.00;101313.53;5053859;28;20104;-82
2023/01/01 08:36:15;;;;;;;20.20;3.40;;;;;;;9.82;100.00;101331.66;5053150;28;20057;-82
2023/01/01 08:38:41;;;;;;;12.55;2.53;;;;;;;9.82;100.00;101341.44;5053389;28;20033;-83
2023/01/01 08:41:07;;;;;;;12.57;2.35;;;;;;;9.80;100.00;101346.03;5053450;28;20037;-82
2023/01/01 08:43:32;;;;;;;15.52;2.45;;;;;;;9.87;100.00;101355.22;5053246;28;20434;-82
2023/01/01 08:45:58;;;;;;;17.20;3.85;;;;;;;9.91;100.00;101353.16;5053722;28;20065;-82
2023/01/01 08:48:23;;;;;;;22.48;3.50;;;;;;;9.93;100.00;101359.16;5053641;28;20029;-82
2023/01/01 08:50:53;;;;;;;18.45;2.63;;;;;;;9.93;100.00;101365.34;5052889;28;20039;-81
2023/01/01 08:53:18;;;;;;;14.20;2.42;;;;;;;9.99;100.00;101358.72;5053558;28;20119;-82
2023/01/01 08:55:43;;;;;;;16.25;2.67;;;;;;;10.05;100.00;101347.56;5053379;28;20033;-82
2023/01/01 08:58:09;;;;;;;12.77;2.60;;;;;;;10.12;100.00;101363.88;5053215;28;20106;-82
2023/01/01 09:00:34;;;;;;;14.25;2.58;;;;;;;10.16;100.00;101362.66;5052781;28;20064;-81
2023/01/01 09:02:59;;;;;;;16.75;3.05;;;;;;;10.20;100.00;101374.75;5053314;28;20037;-81
2023/01/01 09:05:25;;;;;;;29.02;3.33;;;;;;;10.23;100.00;101363.88;5051927;28;20043;-83
2023/01/01 09:07:50;;;;;;;13.65;2.13;;;;;;;10.32;100.00;101364.94;5052651;28;20116;-81
2023/01/01 09:10:16;;;;;;;19.33;2.70;;;;;;;10.36;100.00;101363.72;5053314;28;20512;-81
2023/01/01 09:12:41;;;;;;;20.77;2.92;;;;;;;10.39;100.00;101355.53;5052639;28;20041;-80
2023/01/01 09:15:13;;;;;;;12.32;2.28;;;;;;;10.39;100.00;101359.03;5052669;28;20036;-80
2023/01/01 09:17:39;;;;;;;19.88;2.75;;;;;;;10.37;100.00;101368.09;5052502;28;20033;-81
2023/01/01 09:20:04;;;;;;;20.40;2.63;;;;;;;10.40;100.00;101358.06;5052909;28;20462;-80
2023/01/01 09:22:30;;;;;;;17.92;2.35;;;;;;;10.35;100.00;101367.38;5052636;28;20063;-85
2023/01/01 09:24:55;;;;;;;15.73;2.80;;;;;;;10.26;100.00;101376.06;5052895;28;20025;-79
2023/01/01 09:27:20;;;;;;;16.38;2.95;;;;;;;10.27;100.00;101370.63;5052917;28;20119;-80
2023/01/01 09:29:46;;;;;;;9.65;2.13;;;;;;;10.26;100.00;101376.91;5052470;28;20025;-80
2023/01/01 09:32:11;;;;;;;15.88;2.13;;;;;;;10.31;100.00;101364.06;5052916;28;20029;-81
2023/01/01 09:34:37;;;;;;;16.13;2.80;;;;;;;10.37;100.00;101376.06;5052500;28;20453;-80
2023/01/01 09:37:02;;;;;;;15.95;2.60;;;;;;;10.39;100.00;101390.09;5052582;28;20053;-80
2023/01/01 09:39:29;;;;;;;15.23;1.75;;;;;;;10.38;100.00;101389.25;5053040;28;20076;-88
2023/01/01 09:41:54;;;;;;;10.07;2.33;;;;;;;10.42;100.00;101395.19;5050801;28;20040;-81
2023/01/01 09:44:44;;;;;;;19.65;2.63;;;;;;;10.50;100.00;101398.03;5029863;28;20022;-80
2023/01/01 09:47:33;;;;;;;14.40;2.58;;;;;;;10.58;100.00;101389.44;5030162;28;20104;-79
2023/01/01 09:50:04;;;;;;;13.40;2.38;;;;;;;10.59;100.00;101396.44;5026456;28;20077;-82
2023/01/01 09:53:00;;;;;;;14.65;2.35;;;;;;;10.66;100.00;101410.94;5029990;28;20033;-82
2023/01/01 09:55:37;;;;;;;18.85;2.97;;;;;;;10.67;100.00;101409.97;5025153;28;20551;-78
2023/01/01 09:58:02;;;;;;;15.18;2.45;;;;;;;10.69;100.00;101412.50;5030109;28;20069;-80
2023/01/01 10:00:33;;;;;;;14.00;1.92;;;;;;;10.73;100.00;101417.47;5032317;28;20061;-80
2023/01/01 10:03:26;;;;;;;14.98;2.53;;;;;;;10.68;100.00;101422.31;5032740;28;20042;-83
2023/01/01 10:06:14;;;;;;;13.77;2.40;;;;;;;10.71;100.00;101426.53;5031101;28;20029;-82
2023/01/01 10:08:46;;;;;;;9.43;2.03;;;;;;;10.73;100.00;101416.59;5029226;28;20033;-83
2023/01/01 10:11:36;;;;;;;14.82;2.78;;;;;;;10.68;100.00;101419.63;5029482;28;20030;-82
2023/01/01 10:14:15;;;;;;;12.38;1.90;;;;;;;10.65;100.00;101406.59;5029200;28;20029;-79
2023/01/01 10:16:46;;;;;;;12.00;2.10;;;;;;;10.72;100.00;101401.63;5028644;28;20362;-80
2023/01/01 10:19:35;;;;;;;12.25;2.28;;;;;;;10.81;100.00;101394.66;5029194;28;20095;-79
2023/01/01 10:22:14;;;;;;;9.95;2.40;;;;;;;10.91;100.00;101391.13;5028990;28;20033;-79
2023/01/01 10:24:55;;;;;;;14.75;2.38;;;;;;;11.02;100.00;101397.38;5028728;28;20040;-77
2023/01/01 10:27:35;;;;;;;14.55;2.88;;;;;;;11.05;100.00;101389.16;5029409;28;20051;-83
2023/01/01 10:30:05;;;;;;;10.25;2.13;;;;;;;11.10;100.00;101382.44;5028474;28;20482;-82
2023/01/01 10:32:35;;;;;;;13.70;2.38;;;;;;;11.27;100.00;101383.69;5029291;28;20040;-78
2023/01/01 10:35:09;;;;;;;14.70;2.03;;;;;;;11.44;100.00;101392.06;5028768;28;20197;-79
2023/01/01 10:37:36;;;;;;;15.68;2.50;;;;;;;11.73;100.00;101415.34;5029144;28;20547;-84
2023/01/01 10:40:12;;;;;;;12.82;2.58;;;;;;;11.82;100.00;101426.09;5028675;28;20085;-78
2023/01/01 10:42:37;;;;;;;10.15;2.17;;;;;;;11.95;100.00;101411.69;5028897;28;20091;-80
2023/01/01 10:45:04;;;;;;;14.52;2.47;;;;;;;11.96;100.00;101427.56;5027696;28;20478;-81
2023/01/01 10:47:30;;;;;;;16.38;3.83;;;;;;;12.04;100.00;101442.91;5029228;28;20048;-81
2023/01/01 10:50:03;;;;;;;15.85;2.65;;;;;;;11.99;100.00;101440.63;5030744;28;20037;-80
2023/01/01 10:52:39;;;;;;;10.70;2.75;;;;;;;11.88;100.00;101439.84;5029522;28;20397;-79
2023/01/01 10:55:19;;;;;;;12.13;2.42;;;;;;;11.84;100.00;101436.59;5026767;28;20387;-79
2023/01/01 10:57:44;;;;;;;15.32;2.30;;;;;;;11.68;100.00;101433.56;5028321;28;20343;-79
2023/01/01 11:00:25;;;;;;;14.38;2.63;;;;;;;11.62;100.00;101442.94;5029790;28;20041;-80
2023/01/01 11:03:09;;;;;;;15.10;2.30;;;;;;;11.67;100.00;101450.53;5028615;28;20037;-80
2023/01/01 11:05:35;;;;;;;16.15;3.08;;;;;;;11.71;100.00;101447.47;5028740;28;20042;-80
2023/01/01 11:08:00;;;;;;;18.50;3.70;;;;;;;11.77;100.00;101446.94;5027809;28;20132;-81
2023/01/01 11:10:28;;;;;;;14.32;2.30;;;;;;;11.75;100.00;101440.91;5027146;28;20029;-79
2023/01/01 11:12:53;;;;;;;19.60;2.55;;;;;;;11.74;100.00;101460.53;5029465;28;20029;-78
2023/01/01 11:15:41;;;;;;;13.90;2.45;;;;;;;11.56;100.00;101454.13;5032529;28;20191;-77
2023/01/01 11:18:13;;;;;;;14.18;2.88;;;;;;;11.47;100.00;101464.56;5031770;28;20154;-79
2023/01/01 11:20:39;;;;;;;15.90;2.58;;;;;;;11.43;100.00;101467.63;5032214;28;20382;-80